sensor_id;sensor_type;location;lat;lon;timestamp;temperature;humidity
18733;DHT22;9495;51.210;2.934;2023-01-29T00:00:02;5.10;99.90
18733;DHT22;9495;51.210;2.934;2023-01-29T00:02:36;5.10;99.90
18733;DHT22;9495;51.210;2.934;2023-01-29T00:05:05;5.00;99.90
18733;DHT22;9495;51.210;2.934;2023-01-29T00:07:52;5.00;99.90
18733;DHT22;9495;51.210;2.934;2023-01-29T00:10:21;5.10;99.90
18733;DHT22;9495;51.210;2.934;2023-01-29T00:12:49;5.10;99.90
18733;DHT22;9495;51.210;2.934;2023-01-29T00:15:20;5.00;99.90
18733;DHT22;9495;51.210;2.934;2023-01-29T00:17:48;5.00;99.90
18733;DHT22;9495;51.210;2.934;2023-01-29T00:20:17;5.00;99.90
18733;DHT22;9495;51.210;2.934;2023-01-29T00:22:46;5.00;99.90
18733;DHT22;9495;51.210;2.934;2023-01-29T00:25:14;5.00;99.90
18733;DHT22;9495;51.210;2.934;2023-01-29T00:27:43;5.10;99.90
18733;DHT22;9495;51.210;2.934;2023-01-29T00:30:12;5.10;99.90
18733;DHT22;9495;51.210;2.934;2023-01-29T00:32:46;5.10;99.90
18733;DHT22;9495;51.210;2.934;2023-01-29T00:35:15;5.10;99.90
18733;DHT22;9495;51.210;2.934;2023-01-29T00:37:43;5.10;99.90
18733;DHT22;9495;51.210;2.934;2023-01-29T00:40:12;5.00;99.90
18733;DHT22;9495;51.210;2.934;2023-01-29T00:42:43;5.00;99.90
18733;DHT22;9495;51.210;2.934;2023-01-29T00:45:29;5.00;99.90
18733;DHT22;9495;51.210;2.934;2023-01-29T00:47:59;5.00;99.90
18733;DHT22;9495;51.210;2.934;2023-01-29T00:50:27;5.00;99.90
18733;DHT22;9495;51.210;2.934;2023-01-29T00:52:56;5.00;99.90
18733;DHT22;9495;51.210;2.934;2023-01-29T00:55:24;5.00;99.90
18733;DHT22;9495;51.210;2.934;2023-01-29T00:57:53;5.00;99.90
18733;DHT22;9495;51.210;2.934;2023-01-29T01:00:21;5.10;99.90
18733;DHT22;9495;51.210;2.934;2023-01-29T01:02:50;5.00;99.90
18733;DHT22;9495;51.210;2.934;2023-01-29T01:05:34;5.10;99.90
18733;DHT22;9495;51.210;2.934;2023-01-29T01:08:03;5.00;99.90
18733;DHT22;9495;51.210;2.934;2023-01-29T01:10:58;5.00;99.90
18733;DHT22;9495;51.210;2.934;2023-01-29T01:13:26;5.00;99.90
18733;DHT22;9495;51.210;2.934;2023-01-29T01:15:55;5.00;99.90
18733;DHT22;9495;51.210;2.934;2023-01-29T01:18:23;5.00;99.90
18733;DHT22;9495;51.210;2.934;2023-01-29T01:20:56;5.00;99.90
18733;DHT22;9495;51.210;2.934;2023-01-29T01:23:25;5.10;99.90
18733;DHT22;9495;51.210;2.934;2023-01-29T01:25:53;5.00;99.90
18733;DHT22;9495;51.210;2.934;2023-01-29T01:28:22;5.00;99.90
18733;DHT22;9495;51.210;2.934;2023-01-29T01:30:50;5.00;99.90
18733;DHT22;9495;51.210;2.934;2023-01-29T01:33:19;4.90;99.90
18733;DHT22;9495;51.210;2.934;2023-01-29T01:35:47;5.00;99.90
18733;DHT22;9495;51.210;2.934;2023-01-29T01:38:17;5.00;99.90
18733;DHT22;9495;51.210;2.934;2023-01-29T01:40:45;5.00;99.90
18733;DHT22;9495;51.210;2.934;2023-01-29T01:43:14;4.90;99.90
18733;DHT22;9495;51.210;2.934;2023-01-29T01:45:42;5.00;99.90
18733;DHT22;9495;51.210;2.934;2023-01-29T01:48:14;5.00;99.90
18733;DHT22;9495;51.210;2.934;2023-01-29T01:50:47;5.00;99.90
18733;DHT22;9495;51.210;2.934;2023-01-29T01:53:20;5.00;99.90
18733;DHT22;9495;51.210;2.934;2023-01-29T01:55:52;5.00;99.90
18733;DHT22;9495;51.210;2.934;2023-01-29T01:58:24;5.00;99.90
18733;DHT22;9495;51.210;2.934;2023-01-29T02:00:54;5.00;99.90
18733;DHT22;9495;51.210;2.934;2023-01-29T02:03:23;4.90;99.90
18733;DHT22;9495;51.210;2.934;2023-01-29T02:06:10;4.90;99.90
18733;DHT22;9495;51.210;2.934;2023-01-29T02:09:01;4.90;99.90
18733;DHT22;9495;51.210;2.934;2023-01-29T02:11:48;4.90;99.90
18733;DHT22;9495;51.210;2.934;2023-01-29T02:14:17;5.00;99.90
18733;DHT22;9495;51.210;2.934;2023-01-29T02:16:46;4.90;99.90
18733;DHT22;9495;51.210;2.934;2023-01-29T02:19:19;4.90;99.90
18733;DHT22;9495;51.210;2.934;2023-01-29T02:22:19;4.90;99.90
18733;DHT22;9495;51.210;2.934;2023-01-29T02:25:02;4.90;99.90
18733;DHT22;9495;51.210;2.934;2023-01-29T02:28:02;5.00;99.90
18733;DHT22;9495;51.210;2.934;2023-01-29T02:30:34;4.90;99.90
18733;DHT22;9495;51.210;2.934;2023-01-29T02:33:10;4.80;99.90
18733;DHT22;9495;51.210;2.934;2023-01-29T02:35:45;4.80;99.90
18733;DHT22;9495;51.210;2.934;2023-01-29T02:38:19;4.90;99.90
18733;DHT22;9495;51.210;2.934;2023-01-29T02:40:53;4.90;99.90
18733;DHT22;9495;51.210;2.934;2023-01-29T02:43:29;5.00;99.90
18733;DHT22;9495;51.210;2.934;2023-01-29T02:46:09;4.90;99.90
18733;DHT22;9495;51.210;2.934;2023-01-29T02:48:40;5.00;99.90
18733;DHT22;9495;51.210;2.934;2023-01-29T02:51:14;4.90;99.90
18733;DHT22;9495;51.210;2.934;2023-01-29T02:53:51;5.00;99.90
18733;DHT22;9495;51.210;2.934;2023-01-29T02:56:23;4.90;99.90
18733;DHT22;9495;51.210;2.934;2023-01-29T02:59:00;5.10;99.90
18733;DHT22;9495;51.210;2.934;2023-01-29T03:01:35;5.00;99.90
18733;DHT22;9495;51.210;2.934;2023-01-29T03:04:07;5.00;99.90
18733;DHT22;9495;51.210;2.934;2023-01-29T03:06:40;4.90;99.90
18733;DHT22;9495;51.210;2.934;2023-01-29T03:09:13;4.90;99.90
18733;DHT22;9495;51.210;2.934;2023-01-29T03:11:46;5.00;99.90
18733;DHT22;9495;51.210;2.934;2023-01-29T03:14:21;4.90;99.90
18733;DHT22;9495;51.210;2.934;2023-01-29T03:16:52;5.00;99.90
18733;DHT22;9495;51.210;2.934;2023-01-29T03:19:24;5.00;99.90
18733;DHT22;9495;51.210;2.934;2023-01-29T03:21:56;5.00;99.90
18733;DHT22;9495;51.210;2.934;2023-01-29T03:24:33;5.00;99.90
18733;DHT22;9495;51.210;2.934;2023-01-29T03:27:23;5.10;99.90
18733;DHT22;9495;51.210;2.934;2023-01-29T03:30:15;5.30;99.90
18733;DHT22;9495;51.210;2.934;2023-01-29T03:33:05;5.10;99.90
18733;DHT22;9495;51.210;2.934;2023-01-29T03:35:37;5.10;99.90
18733;DHT22;9495;51.210;2.934;2023-01-29T03:38:08;5.00;99.90
18733;DHT22;9495;51.210;2.934;2023-01-29T03:40:43;5.00;99.90
18733;DHT22;9495;51.210;2.934;2023-01-29T03:43:18;5.10;99.90
18733;DHT22;9495;51.210;2.934;2023-01-29T03:45:59;5.20;99.90
18733;DHT22;9495;51.210;2.934;2023-01-29T03:48:34;5.00;99.90
18733;DHT22;9495;51.210;2.934;2023-01-29T03:51:14;5.00;99.90
18733;DHT22;9495;51.210;2.934;2023-01-29T03:53:47;4.90;99.90
18733;DHT22;9495;51.210;2.934;2023-01-29T03:56:24;4.90;99.90
18733;DHT22;9495;51.210;2.934;2023-01-29T03:58:57;5.00;99.90
18733;DHT22;9495;51.210;2.934;2023-01-29T04:01:32;4.90;99.90
18733;DHT22;9495;51.210;2.934;2023-01-29T04:04:09;4.90;99.90
18733;DHT22;9495;51.210;2.934;2023-01-29T04:06:42;4.90;99.90
18733;DHT22;9495;51.210;2.934;2023-01-29T04:09:13;4.80;99.90
18733;DHT22;9495;51.210;2.934;2023-01-29T04:11:48;4.80;99.90
18733;DHT22;9495;51.210;2.934;2023-01-29T04:14:18;4.90;99.90
18733;DHT22;9495;51.210;2.934;2023-01-29T04:16:51;4.80;99.90
18733;DHT22;9495;51.210;2.934;2023-01-29T04:19:20;4.80;99.90
18733;DHT22;9495;51.210;2.934;2023-01-29T04:21:52;4.80;99.90
18733;DHT22;9495;51.210;2.934;2023-01-29T04:24:27;4.80;99.90
18733;DHT22;9495;51.210;2.934;2023-01-29T04:27:06;4.80;99.90
18733;DHT22;9495;51.210;2.934;2023-01-29T04:29:50;4.80;99.90
18733;DHT22;9495;51.210;2.934;2023-01-29T04:32:25;4.80;99.90
18733;DHT22;9495;51.210;2.934;2023-01-29T04:34:59;4.80;99.90
18733;DHT22;9495;51.210;2.934;2023-01-29T04:37:34;4.90;99.90
18733;DHT22;9495;51.210;2.934;2023-01-29T04:40:09;4.90;99.90
18733;DHT22;9495;51.210;2.934;2023-01-29T04:42:48;4.90;99.90
18733;DHT22;9495;51.210;2.934;2023-01-29T04:45:21;4.90;99.90
18733;DHT22;9495;51.210;2.934;2023-01-29T04:48:01;4.80;99.90
18733;DHT22;9495;51.210;2.934;2023-01-29T04:50:35;4.80;99.90
18733;DHT22;9495;51.210;2.934;2023-01-29T04:53:09;4.80;99.90
18733;DHT22;9495;51.210;2.934;2023-01-29T04:55:42;4.80;99.90
18733;DHT22;9495;51.210;2.934;2023-01-29T04:58:17;5.00;99.90
18733;DHT22;9495;51.210;2.934;2023-01-29T05:00:52;4.90;99.90
18733;DHT22;9495;51.210;2.934;2023-01-29T05:03:24;4.90;99.90
18733;DHT22;9495;51.210;2.934;2023-01-29T05:05:54;5.00;99.90
18733;DHT22;9495;51.210;2.934;2023-01-29T05:08:25;4.90;99.90
18733;DHT22;9495;51.210;2.934;2023-01-29T05:10:57;5.10;99.90
18733;DHT22;9495;51.210;2.934;2023-01-29T05:13:28;4.90;99.90
18733;DHT22;9495;51.210;2.934;2023-01-29T05:16:01;4.80;99.90
18733;DHT22;9495;51.210;2.934;2023-01-29T05:18:32;4.90;99.90
18733;DHT22;9495;51.210;2.934;2023-01-29T05:21:04;4.90;99.90
18733;DHT22;9495;51.210;2.934;2023-01-29T05:23:34;4.90;99.90
18733;DHT22;9495;51.210;2.934;2023-01-29T05:26:03;5.00;99.90
18733;DHT22;9495;51.210;2.934;2023-01-29T05:28:32;5.00;99.90
18733;DHT22;9495;51.210;2.934;2023-01-29T05:30:59;5.00;99.90
18733;DHT22;9495;51.210;2.934;2023-01-29T05:33:30;4.90;99.90
18733;DHT22;9495;51.210;2.934;2023-01-29T05:35:59;5.00;99.90
18733;DHT22;9495;51.210;2.934;2023-01-29T05:38:28;5.00;99.90
18733;DHT22;9495;51.210;2.934;2023-01-29T05:40:57;4.90;99.90
18733;DHT22;9495;51.210;2.934;2023-01-29T05:43:26;4.90;99.90
18733;DHT22;9495;51.210;2.934;2023-01-29T05:45:55;4.90;99.90
18733;DHT22;9495;51.210;2.934;2023-01-29T05:48:25;4.90;99.90
18733;DHT22;9495;51.210;2.934;2023-01-29T05:51:00;5.00;99.90
18733;DHT22;9495;51.210;2.934;2023-01-29T05:53:29;4.90;99.90
18733;DHT22;9495;51.210;2.934;2023-01-29T05:56:00;4.90;99.90
18733;DHT22;9495;51.210;2.934;2023-01-29T05:58:29;4.90;99.90
18733;DHT22;9495;51.210;2.934;2023-01-29T06:00:59;4.90;99.90
18733;DHT22;9495;51.210;2.934;2023-01-29T06:03:34;4.90;99.90
18733;DHT22;9495;51.210;2.934;2023-01-29T06:06:04;5.00;99.90
18733;DHT22;9495;51.210;2.934;2023-01-29T06:08:32;5.00;99.90
18733;DHT22;9495;51.210;2.934;2023-01-29T06:11:01;5.00;99.90
18733;DHT22;9495;51.210;2.934;2023-01-29T06:13:30;5.00;99.90
18733;DHT22;9495;51.210;2.934;2023-01-29T06:15:58;5.00;99.90
18733;DHT22;9495;51.210;2.934;2023-01-29T06:18:27;5.00;99.90
18733;DHT22;9495;51.210;2.934;2023-01-29T06:20:59;5.00;99.90
18733;DHT22;9495;51.210;2.934;2023-01-29T06:23:29;5.10;99.90
18733;DHT22;9495;51.210;2.934;2023-01-29T06:25:59;5.00;99.90
18733;DHT22;9495;51.210;2.934;2023-01-29T06:28:28;5.10;99.90
18733;DHT22;9495;51.210;2.934;2023-01-29T06:30:57;5.10;99.90
18733;DHT22;9495;51.210;2.934;2023-01-29T06:33:42;5.20;99.90
18733;DHT22;9495;51.210;2.934;2023-01-29T06:36:10;5.20;99.90
18733;DHT22;9495;51.210;2.934;2023-01-29T06:38:40;5.40;99.90
18733;DHT22;9495;51.210;2.934;2023-01-29T06:41:11;5.30;99.90
18733;DHT22;9495;51.210;2.934;2023-01-29T06:43:41;5.30;99.90
18733;DHT22;9495;51.210;2.934;2023-01-29T06:46:10;5.30;99.90
18733;DHT22;9495;51.210;2.934;2023-01-29T06:48:39;5.70;99.90
18733;DHT22;9495;51.210;2.934;2023-01-29T06:51:09;5.40;99.90
18733;DHT22;9495;51.210;2.934;2023-01-29T06:53:39;5.40;99.90
18733;DHT22;9495;51.210;2.934;2023-01-29T06:56:11;5.30;99.90
18733;DHT22;9495;51.210;2.934;2023-01-29T06:58:40;5.30;99.90
18733;DHT22;9495;51.210;2.934;2023-01-29T07:01:10;5.30;99.90
18733;DHT22;9495;51.210;2.934;2023-01-29T07:03:58;5.30;99.90
18733;DHT22;9495;51.210;2.934;2023-01-29T07:06:27;5.30;99.90
18733;DHT22;9495;51.210;2.934;2023-01-29T07:08:57;5.20;99.90
18733;DHT22;9495;51.210;2.934;2023-01-29T07:11:26;5.20;99.90
18733;DHT22;9495;51.210;2.934;2023-01-29T07:13:54;5.30;99.90
18733;DHT22;9495;51.210;2.934;2023-01-29T07:16:23;5.30;99.90
18733;DHT22;9495;51.210;2.934;2023-01-29T07:18:52;5.30;99.90
18733;DHT22;9495;51.210;2.934;2023-01-29T07:21:21;5.30;99.90
18733;DHT22;9495;51.210;2.934;2023-01-29T07:23:49;5.30;99.90
18733;DHT22;9495;51.210;2.934;2023-01-29T07:26:19;5.40;99.90
18733;DHT22;9495;51.210;2.934;2023-01-29T07:28:47;5.30;99.90
18733;DHT22;9495;51.210;2.934;2023-01-29T07:31:15;5.90;99.90
18733;DHT22;9495;51.210;2.934;2023-01-29T07:33:44;5.70;99.90
18733;DHT22;9495;51.210;2.934;2023-01-29T07:36:14;5.50;99.90
18733;DHT22;9495;51.210;2.934;2023-01-29T07:38:42;5.50;99.90
18733;DHT22;9495;51.210;2.934;2023-01-29T07:41:11;5.40;99.90
18733;DHT22;9495;51.210;2.934;2023-01-29T07:43:41;5.50;99.90
18733;DHT22;9495;51.210;2.934;2023-01-29T07:46:09;5.40;99.90
18733;DHT22;9495;51.210;2.934;2023-01-29T07:48:38;5.80;99.90
18733;DHT22;9495;51.210;2.934;2023-01-29T07:51:06;5.60;99.90
18733;DHT22;9495;51.210;2.934;2023-01-29T07:53:35;5.50;99.90
18733;DHT22;9495;51.210;2.934;2023-01-29T07:56:04;5.40;99.90
18733;DHT22;9495;51.210;2.934;2023-01-29T07:58:32;5.50;99.90
18733;DHT22;9495;51.210;2.934;2023-01-29T08:01:06;5.40;99.90
18733;DHT22;9495;51.210;2.934;2023-01-29T08:03:35;5.40;99.90
18733;DHT22;9495;51.210;2.934;2023-01-29T08:06:04;5.30;99.90
18733;DHT22;9495;51.210;2.934;2023-01-29T08:08:32;5.40;99.90
18733;DHT22;9495;51.210;2.934;2023-01-29T08:11:01;5.40;99.90
18733;DHT22;9495;51.210;2.934;2023-01-29T08:13:31;5.40;99.90
18733;DHT22;9495;51.210;2.934;2023-01-29T08:16:01;5.40;99.90
18733;DHT22;9495;51.210;2.934;2023-01-29T08:18:30;5.50;99.90
18733;DHT22;9495;51.210;2.934;2023-01-29T08:20:59;5.50;99.90
18733;DHT22;9495;51.210;2.934;2023-01-29T08:23:29;5.40;99.90
18733;DHT22;9495;51.210;2.934;2023-01-29T08:25:57;5.50;99.90
18733;DHT22;9495;51.210;2.934;2023-01-29T08:28:26;5.80;99.90
18733;DHT22;9495;51.210;2.934;2023-01-29T08:30:54;5.70;99.90
18733;DHT22;9495;51.210;2.934;2023-01-29T08:33:22;5.70;99.90
18733;DHT22;9495;51.210;2.934;2023-01-29T08:36:07;5.60;99.90
18733;DHT22;9495;51.210;2.934;2023-01-29T08:38:35;5.60;99.90
18733;DHT22;9495;51.210;2.934;2023-01-29T08:41:04;5.70;99.90
18733;DHT22;9495;51.210;2.934;2023-01-29T08:43:33;5.60;99.90
18733;DHT22;9495;51.210;2.934;2023-01-29T08:46:03;5.80;99.90
18733;DHT22;9495;51.210;2.934;2023-01-29T08:48:32;5.70;99.90
18733;DHT22;9495;51.210;2.934;2023-01-29T08:51:01;5.60;99.90
18733;DHT22;9495;51.210;2.934;2023-01-29T08:53:32;5.70;99.90
18733;DHT22;9495;51.210;2.934;2023-01-29T08:56:01;5.70;99.90
18733;DHT22;9495;51.210;2.934;2023-01-29T08:58:29;6.00;99.90
18733;DHT22;9495;51.210;2.934;2023-01-29T09:01:05;5.90;99.90
18733;DHT22;9495;51.210;2.934;2023-01-29T09:03:34;5.80;99.90
18733;DHT22;9495;51.210;2.934;2023-01-29T09:06:03;5.70;99.90
18733;DHT22;9495;51.210;2.934;2023-01-29T09:08:32;5.60;99.90
18733;DHT22;9495;51.210;2.934;2023-01-29T09:11:01;5.70;99.90
18733;DHT22;9495;51.210;2.934;2023-01-29T09:13:29;5.70;99.90
18733;DHT22;9495;51.210;2.934;2023-01-29T09:15:58;5.70;99.90
18733;DHT22;9495;51.210;2.934;2023-01-29T09:18:28;5.60;99.90
18733;DHT22;9495;51.210;2.934;2023-01-29T09:20:57;5.60;99.90
18733;DHT22;9495;51.210;2.934;2023-01-29T09:23:25;5.90;99.90
18733;DHT22;9495;51.210;2.934;2023-01-29T09:25:55;5.70;99.90
18733;DHT22;9495;51.210;2.934;2023-01-29T09:28:24;5.60;99.90
18733;DHT22;9495;51.210;2.934;2023-01-29T09:30:52;6.00;99.90
18733;DHT22;9495;51.210;2.934;2023-01-29T09:33:21;6.00;99.90
18733;DHT22;9495;51.210;2.934;2023-01-29T09:35:50;5.90;99.90
18733;DHT22;9495;51.210;2.934;2023-01-29T09:38:19;5.90;99.90
18733;DHT22;9495;51.210;2.934;2023-01-29T09:40:56;6.10;99.90
18733;DHT22;9495;51.210;2.934;2023-01-29T09:43:36;6.30;99.90
18733;DHT22;9495;51.210;2.934;2023-01-29T09:46:14;6.00;99.90
18733;DHT22;9495;51.210;2.934;2023-01-29T09:48:45;6.30;99.90
18733;DHT22;9495;51.210;2.934;2023-01-29T09:51:25;6.30;99.90
18733;DHT22;9495;51.210;2.934;2023-01-29T09:54:08;6.40;99.90
18733;DHT22;9495;51.210;2.934;2023-01-29T09:56:41;6.10;99.90
18733;DHT22;9495;51.210;2.934;2023-01-29T09:59:12;6.00;99.90
18733;DHT22;9495;51.210;2.934;2023-01-29T10:01:46;6.40;99.90
18733;DHT22;9495;51.210;2.934;2023-01-29T10:07:21;6.40;99.90
18733;DHT22;9495;51.210;2.934;2023-01-29T10:10:09;6.20;99.90
18733;DHT22;9495;51.210;2.934;2023-01-29T10:12:52;6.40;99.90
18733;DHT22;9495;51.210;2.934;2023-01-29T10:15:37;6.50;99.90
18733;DHT22;9495;51.210;2.934;2023-01-29T10:18:25;7.00;99.90
18733;DHT22;9495;51.210;2.934;2023-01-29T10:21:02;6.40;99.90
18733;DHT22;9495;51.210;2.934;2023-01-29T10:23:37;6.70;99.90
18733;DHT22;9495;51.210;2.934;2023-01-29T10:26:09;6.60;99.90
18733;DHT22;9495;51.210;2.934;2023-01-29T10:28:41;6.40;99.90
18733;DHT22;9495;51.210;2.934;2023-01-29T10:31:16;6.60;99.90
18733;DHT22;9495;51.210;2.934;2023-01-29T10:33:49;6.60;99.90
18733;DHT22;9495;51.210;2.934;2023-01-29T10:36:34;6.70;99.90
18733;DHT22;9495;51.210;2.934;2023-01-29T10:39:03;6.80;99.90
18733;DHT22;9495;51.210;2.934;2023-01-29T10:41:47;6.80;99.90
18733;DHT22;9495;51.210;2.934;2023-01-29T10:44:30;6.70;99.90
18733;DHT22;9495;51.210;2.934;2023-01-29T10:47:20;6.80;99.90
18733;DHT22;9495;51.210;2.934;2023-01-29T10:50:10;6.80;99.90
18733;DHT22;9495;51.210;2.934;2023-01-29T10:52:52;6.80;99.90
18733;DHT22;9495;51.210;2.934;2023-01-29T10:55:34;6.80;99.90
18733;DHT22;9495;51.210;2.934;2023-01-29T10:58:14;7.90;99.90
18733;DHT22;9495;51.210;2.934;2023-01-29T11:00:46;7.20;99.90
18733;DHT22;9495;51.210;2.934;2023-01-29T11:03:16;7.00;99.90
18733;DHT22;9495;51.210;2.934;2023-01-29T11:05:58;6.80;99.90
18733;DHT22;9495;51.210;2.934;2023-01-29T11:08:33;7.40;99.90
18733;DHT22;9495;51.210;2.934;2023-01-29T11:11:06;7.00;99.90
18733;DHT22;9495;51.210;2.934;2023-01-29T11:13:39;7.20;99.90
18733;DHT22;9495;51.210;2.934;2023-01-29T11:16:10;7.10;99.90
18733;DHT22;9495;51.210;2.934;2023-01-29T11:18:53;6.80;99.90
18733;DHT22;9495;51.210;2.934;2023-01-29T11:21:23;7.10;99.90
18733;DHT22;9495;51.210;2.934;2023-01-29T11:24:05;7.00;99.90
18733;DHT22;9495;51.210;2.934;2023-01-29T11:26:37;7.10;99.90
18733;DHT22;9495;51.210;2.934;2023-01-29T11:29:31;7.80;99.90
18733;DHT22;9495;51.210;2.934;2023-01-29T11:32:03;7.60;99.90
18733;DHT22;9495;51.210;2.934;2023-01-29T11:34:33;7.80;99.90
18733;DHT22;9495;51.210;2.934;2023-01-29T11:37:03;7.20;99.90
18733;DHT22;9495;51.210;2.934;2023-01-29T11:39:32;7.50;99.90
18733;DHT22;9495;51.210;2.934;2023-01-29T11:42:01;7.40;99.90
18733;DHT22;9495;51.210;2.934;2023-01-29T11:44:32;7.70;99.90
18733;DHT22;9495;51.210;2.934;2023-01-29T11:47:17;7.30;99.90
18733;DHT22;9495;51.210;2.934;2023-01-29T11:49:48;7.00;99.90
18733;DHT22;9495;51.210;2.934;2023-01-29T11:52:19;7.00;99.90
18733;DHT22;9495;51.210;2.934;2023-01-29T11:54:51;7.20;99.90
18733;DHT22;9495;51.210;2.934;2023-01-29T11:57:25;7.60;99.90
18733;DHT22;9495;51.210;2.934;2023-01-29T11:59:56;8.20;99.90
18733;DHT22;9495;51.210;2.934;2023-01-29T12:02:32;8.00;99.90
18733;DHT22;9495;51.210;2.934;2023-01-29T12:05:05;7.90;99.90
18733;DHT22;9495;51.210;2.934;2023-01-29T12:07:34;8.50;99.90
18733;DHT22;9495;51.210;2.934;2023-01-29T12:10:29;7.80;99.90
18733;DHT22;9495;51.210;2.934;2023-01-29T12:13:06;8.70;99.90
18733;DHT22;9495;51.210;2.934;2023-01-29T12:15:37;9.50;99.90
18733;DHT22;9495;51.210;2.934;2023-01-29T12:18:13;8.50;99.90
18733;DHT22;9495;51.210;2.934;2023-01-29T12:20:47;8.20;99.90
18733;DHT22;9495;51.210;2.934;2023-01-29T12:23:24;8.40;99.90
18733;DHT22;9495;51.210;2.934;2023-01-29T12:25:59;7.90;99.90
18733;DHT22;9495;51.210;2.934;2023-01-29T12:28:41;8.70;99.90
18733;DHT22;9495;51.210;2.934;2023-01-29T12:31:27;8.20;99.90
18733;DHT22;9495;51.210;2.934;2023-01-29T12:34:03;8.00;99.90
18733;DHT22;9495;51.210;2.934;2023-01-29T12:36:36;8.50;99.90
18733;DHT22;9495;51.210;2.934;2023-01-29T12:39:08;8.30;99.90
18733;DHT22;9495;51.210;2.934;2023-01-29T12:41:40;8.20;99.90
18733;DHT22;9495;51.210;2.934;2023-01-29T12:44:16;8.90;99.90
18733;DHT22;9495;51.210;2.934;2023-01-29T12:46:49;8.70;99.90
18733;DHT22;9495;51.210;2.934;2023-01-29T12:49:22;8.50;99.90
18733;DHT22;9495;51.210;2.934;2023-01-29T12:51:56;7.80;99.90
18733;DHT22;9495;51.210;2.934;2023-01-29T12:54:32;7.90;99.90
18733;DHT22;9495;51.210;2.934;2023-01-29T12:57:06;8.30;99.90
18733;DHT22;9495;51.210;2.934;2023-01-29T12:59:40;8.30;99.90
18733;DHT22;9495;51.210;2.934;2023-01-29T13:02:20;8.60;99.90
18733;DHT22;9495;51.210;2.934;2023-01-29T13:04:56;8.00;99.90
18733;DHT22;9495;51.210;2.934;2023-01-29T13:07:30;8.80;99.90
18733;DHT22;9495;51.210;2.934;2023-01-29T13:10:06;9.20;99.90
18733;DHT22;9495;51.210;2.934;2023-01-29T13:12:38;8.80;99.90
18733;DHT22;9495;51.210;2.934;2023-01-29T13:15:16;8.30;99.90
18733;DHT22;9495;51.210;2.934;2023-01-29T13:17:51;8.90;99.90
18733;DHT22;9495;51.210;2.934;2023-01-29T13:20:24;8.90;99.90
18733;DHT22;9495;51.210;2.934;2023-01-29T13:22:59;8.50;99.90
18733;DHT22;9495;51.210;2.934;2023-01-29T13:25:29;9.00;99.90
18733;DHT22;9495;51.210;2.934;2023-01-29T13:27:58;8.50;99.90
18733;DHT22;9495;51.210;2.934;2023-01-29T13:30:28;8.30;99.90
18733;DHT22;9495;51.210;2.934;2023-01-29T13:32:58;8.30;99.90
18733;DHT22;9495;51.210;2.934;2023-01-29T13:35:39;8.10;99.90
18733;DHT22;9495;51.210;2.934;2023-01-29T13:38:22;8.40;99.90
18733;DHT22;9495;51.210;2.934;2023-01-29T13:40:53;8.90;99.90
18733;DHT22;9495;51.210;2.934;2023-01-29T13:43:23;8.30;99.90
18733;DHT22;9495;51.210;2.934;2023-01-29T13:45:52;8.50;99.90
18733;DHT22;9495;51.210;2.934;2023-01-29T13:48:24;9.10;99.90
18733;DHT22;9495;51.210;2.934;2023-01-29T13:50:55;9.30;99.90
18733;DHT22;9495;51.210;2.934;2023-01-29T13:53:26;8.90;99.90
18733;DHT22;9495;51.210;2.934;2023-01-29T13:55:55;9.20;99.90
18733;DHT22;9495;51.210;2.934;2023-01-29T13:58:54;9.00;99.90
18733;DHT22;9495;51.210;2.934;2023-01-29T14:01:59;8.80;99.90
18733;DHT22;9495;51.210;2.934;2023-01-29T14:04:30;8.30;99.90
18733;DHT22;9495;51.210;2.934;2023-01-29T14:07:00;9.40;99.90
18733;DHT22;9495;51.210;2.934;2023-01-29T14:12:49;9.00;99.90
18733;DHT22;9495;51.210;2.934;2023-01-29T14:15:22;9.80;99.90
18733;DHT22;9495;51.210;2.934;2023-01-29T14:18:13;9.40;99.90
18733;DHT22;9495;51.210;2.934;2023-01-29T14:21:00;9.40;99.90
18733;DHT22;9495;51.210;2.934;2023-01-29T14:23:38;9.30;99.90
18733;DHT22;9495;51.210;2.934;2023-01-29T14:26:31;8.80;99.90
18733;DHT22;9495;51.210;2.934;2023-01-29T14:29:03;9.30;99.90
18733;DHT22;9495;51.210;2.934;2023-01-29T14:31:46;9.00;99.90
18733;DHT22;9495;51.210;2.934;2023-01-29T14:34:19;8.80;99.90
18733;DHT22;9495;51.210;2.934;2023-01-29T14:36:49;9.60;99.90
18733;DHT22;9495;51.210;2.934;2023-01-29T14:39:28;8.80;99.90
18733;DHT22;9495;51.210;2.934;2023-01-29T14:41:59;9.10;99.90
18733;DHT22;9495;51.210;2.934;2023-01-29T14:44:55;9.80;99.90
18733;DHT22;9495;51.210;2.934;2023-01-29T14:47:59;8.90;99.90
18733;DHT22;9495;51.210;2.934;2023-01-29T14:50:44;8.90;99.90
18733;DHT22;9495;51.210;2.934;2023-01-29T14:53:21;9.40;99.90
18733;DHT22;9495;51.210;2.934;2023-01-29T14:55:55;9.30;99.90
18733;DHT22;9495;51.210;2.934;2023-01-29T14:58:32;9.50;99.90
18733;DHT22;9495;51.210;2.934;2023-01-29T15:01:03;9.70;99.90
18733;DHT22;9495;51.210;2.934;2023-01-29T15:03:40;10.00;99.90
18733;DHT22;9495;51.210;2.934;2023-01-29T15:06:16;9.60;99.90
18733;DHT22;9495;51.210;2.934;2023-01-29T15:08:50;9.20;99.90
18733;DHT22;9495;51.210;2.934;2023-01-29T15:11:26;9.10;99.90
18733;DHT22;9495;51.210;2.934;2023-01-29T15:14:12;8.70;99.90
18733;DHT22;9495;51.210;2.934;2023-01-29T15:16:47;9.20;99.90
18733;DHT22;9495;51.210;2.934;2023-01-29T15:19:22;9.60;99.90
18733;DHT22;9495;51.210;2.934;2023-01-29T15:22:06;9.60;99.90
18733;DHT22;9495;51.210;2.934;2023-01-29T15:24:35;9.20;99.90
18733;DHT22;9495;51.210;2.934;2023-01-29T15:27:06;9.40;99.90
18733;DHT22;9495;51.210;2.934;2023-01-29T15:29:34;9.50;99.90
18733;DHT22;9495;51.210;2.934;2023-01-29T15:32:03;10.20;99.90
18733;DHT22;9495;51.210;2.934;2023-01-29T15:34:33;9.80;99.90
18733;DHT22;9495;51.210;2.934;2023-01-29T15:37:02;10.00;99.90
18733;DHT22;9495;51.210;2.934;2023-01-29T15:39:31;9.40;99.90
18733;DHT22;9495;51.210;2.934;2023-01-29T15:42:12;9.00;99.90
18733;DHT22;9495;51.210;2.934;2023-01-29T15:44:44;9.20;99.90
18733;DHT22;9495;51.210;2.934;2023-01-29T15:47:14;9.50;99.90
18733;DHT22;9495;51.210;2.934;2023-01-29T15:49:45;8.90;99.90
18733;DHT22;9495;51.210;2.934;2023-01-29T15:52:17;8.80;99.90
18733;DHT22;9495;51.210;2.934;2023-01-29T15:54:47;9.40;99.90
18733;DHT22;9495;51.210;2.934;2023-01-29T15:57:22;9.40;99.90
18733;DHT22;9495;51.210;2.934;2023-01-29T15:59:52;9.20;99.90
18733;DHT22;9495;51.210;2.934;2023-01-29T16:02:35;9.00;99.90
18733;DHT22;9495;51.210;2.934;2023-01-29T16:05:10;8.80;99.90
18733;DHT22;9495;51.210;2.934;2023-01-29T16:07:41;9.00;99.90
18733;DHT22;9495;51.210;2.934;2023-01-29T16:10:17;9.30;99.90
18733;DHT22;9495;51.210;2.934;2023-01-29T16:12:48;9.30;99.90
18733;DHT22;9495;51.210;2.934;2023-01-29T16:15:27;9.20;99.90
18733;DHT22;9495;51.210;2.934;2023-01-29T16:18:00;9.90;99.90
18733;DHT22;9495;51.210;2.934;2023-01-29T16:20:40;10.00;99.90
18733;DHT22;9495;51.210;2.934;2023-01-29T16:23:16;10.00;99.90
18733;DHT22;9495;51.210;2.934;2023-01-29T16:25:45;10.00;99.90
18733;DHT22;9495;51.210;2.934;2023-01-29T16:28:15;10.10;99.90
18733;DHT22;9495;51.210;2.934;2023-01-29T16:30:44;9.70;99.90
18733;DHT22;9495;51.210;2.934;2023-01-29T16:33:14;9.70;99.90
18733;DHT22;9495;51.210;2.934;2023-01-29T16:35:49;9.20;99.90
18733;DHT22;9495;51.210;2.934;2023-01-29T16:38:25;9.50;99.90
18733;DHT22;9495;51.210;2.934;2023-01-29T16:41:13;10.00;99.90
18733;DHT22;9495;51.210;2.934;2023-01-29T16:43:50;9.30;99.90
18733;DHT22;9495;51.210;2.934;2023-01-29T16:46:25;9.00;99.90
18733;DHT22;9495;51.210;2.934;2023-01-29T16:48:59;9.40;99.90